Nissyomaru — JD2650 — position and weather

sailwx.info

Track history (hours):
 
Tides and Currents Weather Stations Pressure Air Temp Water Temp Dewpoint Dewpoint Depression Visibility Wind Speed Wind Dir Waves Ship Positions

Nissyomaru

Last reported at 2015-Jan-25 09:18 UTC. Time now 2015-Jan-25 14:16 UTC.
Position N 34°54' E 140°02'.

Length 75 m; draft 4 m.

Type: Cargo ship. MMSI: 431000572.

Date/timePositionNaut miles runAvg speedWind from/ knotsBaromVisibWave heightAir tempDewpointWater temp
2015-Jan-25 09:18N 34°54' E 140°02'25411.0
2015-Jan-24 10:12N 33°59' E 135°01'812.6
2015-Jan-24 09:33N 34°07' E 135°00'1313.1
2015-Jan-24 08:32N 34°21' E 135°00'1313.5
2015-Jan-24 07:33N 34°30' E 135°12'1212.0
2015-Jan-24 06:33N 34°40' E 135°18'1 1.1
2015-Jan-24 05:22N 34°41' E 135°17'0 0.0
2015-Jan-24 04:28N 34°41' E 135°17'0 0.0
2015-Jan-24 03:28N 34°41' E 135°17'0 0.0
2015-Jan-24 02:22N 34°41' E 135°17'0 0.0
2015-Jan-24 01:28N 34°41' E 135°17'0 0.0
2015-Jan-24 00:28N 34°41' E 135°17'0 0.0
2015-Jan-23 23:28N 34°41' E 135°17'0 0.0
2015-Jan-23 22:33N 34°41' E 135°17'2 2.0
2015-Jan-23 21:32N 34°42' E 135°19'0 0.0
2015-Jan-23 20:32N 34°42' E 135°19'0 0.0
2015-Jan-23 19:26N 34°42' E 135°19'0 0.0
2015-Jan-23 18:32N 34°42' E 135°19'0 0.0
2015-Jan-23 17:26N 34°42' E 135°19'0 0.0
2015-Jan-23 16:26N 34°42' E 135°19'0 0.0
2015-Jan-23 15:32N 34°42' E 135°19'0 0.0
2015-Jan-23 14:20N 34°42' E 135°19'0 0.0
2015-Jan-23 13:32N 34°42' E 135°19'0 0.0
2015-Jan-23 12:32N 34°42' E 135°19'0 0.0
2015-Jan-23 11:32N 34°42' E 135°19'0 0.0
2015-Jan-23 10:32N 34°42' E 135°19'0 0.0
2015-Jan-23 09:32N 34°42' E 135°19'0 0.0
2015-Jan-23 08:23N 34°42' E 135°19'0 0.0
2015-Jan-23 07:29N 34°42' E 135°19'2 1.6
2015-Jan-23 06:30N 34°42' E 135°17'0 0.0
2015-Jan-23 05:30N 34°42' E 135°17'0 0.0
2015-Jan-23 04:24N 34°42' E 135°17'0 0.0
2015-Jan-23 03:27N 34°42' E 135°17'0 0.4
2015-Jan-23 02:33N 34°42' E 135°17'2 1.7
2015-Jan-23 01:33N 34°42' E 135°19'0 0.0
2015-Jan-23 00:31N 34°42' E 135°19'0 0.0
2015-Jan-22 23:25N 34°42' E 135°19'0 0.0
2015-Jan-22 22:19N 34°42' E 135°19'0 0.0
2015-Jan-22 21:19N 34°42' E 135°19'0 0.0
2015-Jan-22 20:31N 34°42' E 135°19'0 0.0
2015-Jan-22 19:31N 34°42' E 135°19'0 0.0
2015-Jan-22 18:31N 34°42' E 135°19'0 0.0
2015-Jan-22 17:31N 34°42' E 135°19'0 0.1
2015-Jan-22 16:31N 34°42' E 135°19'0 0.0
2015-Jan-22 15:31N 34°42' E 135°19'0 0.0
2015-Jan-22 14:25N 34°42' E 135°19'0 0.0
2015-Jan-22 13:31N 34°42' E 135°19'0 0.0
2015-Jan-22 12:31N 34°42' E 135°19'0 0.0
2015-Jan-22 11:25N 34°42' E 135°19'0 0.0
2015-Jan-22 10:25N 34°42' E 135°19'0 0.0
2015-Jan-22 09:31N 34°42' E 135°19'4 4.6
2015-Jan-22 08:33N 34°37' E 135°19'1111.3
2015-Jan-22 07:33N 34°28' E 135°11'19 9.7
2015-Jan-22 05:33N 34°11' E 135°00'240 9.9
2015-Jan-21 05:14N 34°48' E 139°48'  
Track history (hours):
 
Tides and Currents Weather Stations Pressure Air Temp Water Temp Dewpoint Dewpoint Depression Visibility Wind Speed Wind Dir Waves Ship Positions

Nissyomaru

Last reported at 2015-Jan-25 09:18 UTC. Time now 2015-Jan-25 14:16 UTC.
Position N 34°54' E 140°02'.

Length 75 m; draft 4 m.

Type: Cargo ship. MMSI: 431000572.

Date/timePositionNaut miles runAvg speedWind from/ knotsBaromVisibWave heightAir tempDewpointWater temp
2015-Jan-25 09:18N 34°54' E 140°02'25411.0
2015-Jan-24 10:12N 33°59' E 135°01'812.6
2015-Jan-24 09:33N 34°07' E 135°00'1313.1
2015-Jan-24 08:32N 34°21' E 135°00'1313.5
2015-Jan-24 07:33N 34°30' E 135°12'1212.0
2015-Jan-24 06:33N 34°40' E 135°18'1 1.1
2015-Jan-24 05:22N 34°41' E 135°17'0 0.0
2015-Jan-24 04:28N 34°41' E 135°17'0 0.0
2015-Jan-24 03:28N 34°41' E 135°17'0 0.0
2015-Jan-24 02:22N 34°41' E 135°17'0 0.0
2015-Jan-24 01:28N 34°41' E 135°17'0 0.0
2015-Jan-24 00:28N 34°41' E 135°17'0 0.0
2015-Jan-23 23:28N 34°41' E 135°17'0 0.0
2015-Jan-23 22:33N 34°41' E 135°17'2 2.0
2015-Jan-23 21:32N 34°42' E 135°19'0 0.0
2015-Jan-23 20:32N 34°42' E 135°19'0 0.0
2015-Jan-23 19:26N 34°42' E 135°19'0 0.0
2015-Jan-23 18:32N 34°42' E 135°19'0 0.0
2015-Jan-23 17:26N 34°42' E 135°19'0 0.0
2015-Jan-23 16:26N 34°42' E 135°19'0 0.0
2015-Jan-23 15:32N 34°42' E 135°19'0 0.0
2015-Jan-23 14:20N 34°42' E 135°19'0 0.0
2015-Jan-23 13:32N 34°42' E 135°19'0 0.0
2015-Jan-23 12:32N 34°42' E 135°19'0 0.0
2015-Jan-23 11:32N 34°42' E 135°19'0 0.0
2015-Jan-23 10:32N 34°42' E 135°19'0 0.0
2015-Jan-23 09:32N 34°42' E 135°19'0 0.0
2015-Jan-23 08:23N 34°42' E 135°19'0 0.0
2015-Jan-23 07:29N 34°42' E 135°19'2 1.6
2015-Jan-23 06:30N 34°42' E 135°17'0 0.0
2015-Jan-23 05:30N 34°42' E 135°17'0 0.0
2015-Jan-23 04:24N 34°42' E 135°17'0 0.0
2015-Jan-23 03:27N 34°42' E 135°17'0 0.4
2015-Jan-23 02:33N 34°42' E 135°17'2 1.7
2015-Jan-23 01:33N 34°42' E 135°19'0 0.0
2015-Jan-23 00:31N 34°42' E 135°19'0 0.0
2015-Jan-22 23:25N 34°42' E 135°19'0 0.0
2015-Jan-22 22:19N 34°42' E 135°19'0 0.0
2015-Jan-22 21:19N 34°42' E 135°19'0 0.0
2015-Jan-22 20:31N 34°42' E 135°19'0 0.0
2015-Jan-22 19:31N 34°42' E 135°19'0 0.0
2015-Jan-22 18:31N 34°42' E 135°19'0 0.0
2015-Jan-22 17:31N 34°42' E 135°19'0 0.1
2015-Jan-22 16:31N 34°42' E 135°19'0 0.0
2015-Jan-22 15:31N 34°42' E 135°19'0 0.0
2015-Jan-22 14:25N 34°42' E 135°19'0 0.0
2015-Jan-22 13:31N 34°42' E 135°19'0 0.0
2015-Jan-22 12:31N 34°42' E 135°19'0 0.0
2015-Jan-22 11:25N 34°42' E 135°19'0 0.0
2015-Jan-22 10:25N 34°42' E 135°19'0 0.0
2015-Jan-22 09:31N 34°42' E 135°19'4 4.6
2015-Jan-22 08:33N 34°37' E 135°19'1111.3
2015-Jan-22 07:33N 34°28' E 135°11'19 9.7
2015-Jan-22 05:33N 34°11' E 135°00'240 9.9
2015-Jan-21 05:14N 34°48' E 139°48'  

Dump ship's entire track history